This is the latest recevied weather packets stored in our database for station/object OK1PHM-12. If no packets are shown the sender has not sent any weather packets the latest 10 day(s).
| Time | Temp. | Humidity | Pressure | Rain* | Wind** | Luminosity | Snow |
|---|---|---|---|---|---|---|---|
| 1777601137 | 7.78° C | 73% | 1030.2 hPa | - | - | - | - |
| 1777600237 | 7.78° C | 73% | 1030.2 hPa | - | - | - | - |
| 1777599336 | 7.78° C | 71% | 1030.2 hPa | - | - | - | - |
| 1777598435 | 7.78° C | 72% | 1030.3 hPa | - | - | - | - |
| 1777597534 | 7.22° C | 73% | 1030.3 hPa | - | - | - | - |
| 1777596633 | 7.22° C | 73% | 1030.3 hPa | - | - | - | - |
| 1777595733 | 7.22° C | 73% | 1030.2 hPa | - | - | - | - |
| 1777594832 | 7.22° C | 71% | 1030.2 hPa | - | - | - | - |
| 1777593931 | 7.22° C | 71% | 1030.3 hPa | - | - | - | - |
| 1777593030 | 7.22° C | 67% | 1030.3 hPa | - | - | - | - |
| 1777592128 | 7.22° C | 66% | 1030.4 hPa | - | - | - | - |
| 1777591228 | 6.67° C | 67% | 1030.4 hPa | - | - | - | - |
| 1777590327 | 6.11° C | 68% | 1030.5 hPa | - | - | - | - |
| 1777588525 | 6.11° C | 68% | 1030.4 hPa | - | - | - | - |
| 1777587624 | 6.11° C | 68% | 1030.4 hPa | - | - | - | - |
| 1777586724 | 6.11° C | 67% | 1030.5 hPa | - | - | - | - |
| 1777585823 | 6.67° C | 66% | 1030.4 hPa | - | - | - | - |
| 1777584922 | 6.67° C | 66% | 1030.3 hPa | - | - | - | - |
| 1777584021 | 6.67° C | 66% | 1030.4 hPa | - | - | - | - |
| 1777583120 | 7.22° C | 64% | 1030.5 hPa | - | - | - | - |
| 1777582219 | 7.22° C | 64% | 1030.4 hPa | - | - | - | - |
| 1777581318 | 7.22° C | 64% | 1030.4 hPa | - | - | - | - |
| 1777580417 | 7.78° C | 63% | 1030.5 hPa | - | - | - | - |
| 1777579517 | 7.78° C | 62% | 1030.4 hPa | - | - | - | - |
| 1777578616 | 8.33° C | 59% | 1030.3 hPa | - | - | - | - |
* Rain since midnight (hover to see other rain measurements)
** Current wind speed in m/s (hover to see current wind gust speed)